Time;durP1;ratioP1;P1;durP2;ratioP2;P2;SDS_P1;SDS_P2;PMS_P1;PMS_P2;Temp;Humidity;BMP_temperature;BMP_pressure;BME280_temperature;BME280_humidity;BME280_pressure;Samples;Min_cycle;Max_cycle;Signal;HPM_P1;HPM_P2
2022/11/01 00:01:10;;;;;;;;;;;;;;;21.55;nan;101766.09;5045243;28;19970;-35
2022/11/01 00:03:35;;;;;;;;;;;;;;;21.51;nan;101767.75;5043963;28;19924;-35
2022/11/01 00:06:00;;;;;;;;;;;;;;;21.52;nan;101776.75;5043698;28;19931;-36
2022/11/01 00:08:25;;;;;;;;;;;;;;;21.48;nan;101762.09;5040797;28;19974;-35
2022/11/01 00:10:51;;;;;;;;;;;;;;;21.44;nan;101769.25;5044199;28;20003;-35
2022/11/01 00:13:16;;;;;;;;;;;;;;;21.37;nan;101769.66;5042739;28;19916;-35
2022/11/01 00:15:41;;;;;;;;;;;;;;;21.32;nan;101765.06;5042359;28;20474;-35
2022/11/01 00:18:07;;;;;;;;;;;;;;;21.34;nan;101768.28;5039425;28;20371;-35
2022/11/01 00:20:32;;;;;;;;;;;;;;;21.36;nan;101777.00;5042301;28;20355;-35
2022/11/01 00:22:57;;;;;;;;;;;;;;;21.34;nan;101770.22;5039613;28;20274;-35
2022/11/01 00:25:23;;;;;;;;;;;;;;;21.35;nan;101764.47;5041736;28;19920;-35
2022/11/01 00:27:48;;;;;;;;;;;;;;;21.39;nan;101757.34;5041728;28;19960;-36
2022/11/01 00:30:13;;;;;;;;;;;;;;;21.41;nan;101755.13;5041015;28;20408;-36
2022/11/01 00:32:39;;;;;;;;;;;;;;;21.39;nan;101746.44;5038975;28;20404;-35
2022/11/01 00:35:04;;;;;;;;;;;;;;;21.36;nan;101757.94;5040763;28;20011;-35
2022/11/01 00:37:29;;;;;;;;;;;;;;;21.37;nan;101743.19;5043633;28;19925;-35
2022/11/01 00:39:55;;;;;;;;;;;;;;;21.40;nan;101742.59;5039992;28;20409;-35
2022/11/01 00:42:20;;;;;;;;;;;;;;;21.44;nan;101742.81;5037523;28;19963;-36
2022/11/01 00:44:45;;;;;;;;;;;;;;;21.46;nan;101739.78;5038408;28;20020;-35
2022/11/01 00:47:11;;;;;;;;;;;;;;;21.46;nan;101742.50;5043890;28;19913;-35
2022/11/01 00:49:36;;;;;;;;;;;;;;;21.44;nan;101744.72;5040865;28;20421;-36
2022/11/01 00:52:01;;;;;;;;;;;;;;;21.46;nan;101737.88;5038844;28;20000;-35
2022/11/01 00:54:27;;;;;;;;;;;;;;;21.46;nan;101739.78;5042771;28;19917;-35
2022/11/01 00:56:52;;;;;;;;;;;;;;;21.46;nan;101734.31;5040811;28;20333;-35
2022/11/01 00:59:17;;;;;;;;;;;;;;;21.42;nan;101729.47;5041683;28;20901;-36
2022/11/01 01:01:43;;;;;;;;;;;;;;;21.42;nan;101725.94;5039491;28;19921;-35
2022/11/01 01:04:08;;;;;;;;;;;;;;;21.40;nan;101714.53;5039847;28;20374;-35
2022/11/01 01:06:33;;;;;;;;;;;;;;;21.40;nan;101698.97;5041128;28;20259;-35
2022/11/01 01:08:59;;;;;;;;;;;;;;;21.36;nan;101689.78;5041681;28;19921;-35
2022/11/01 01:11:25;;;;;;;;;;;;;;;21.35;nan;101674.50;5042641;28;19917;-36
2022/11/01 01:13:50;;;;;;;;;;;;;;;21.35;nan;101660.06;5038764;28;19931;-35
2022/11/01 01:16:15;;;;;;;;;;;;;;;21.35;nan;101657.34;5041480;28;20527;-35
2022/11/01 01:18:41;;;;;;;;;;;;;;;21.35;nan;101663.59;5039721;28;19928;-35
2022/11/01 01:21:06;;;;;;;;;;;;;;;21.34;nan;101678.34;5045357;28;19917;-35
2022/11/01 01:23:32;;;;;;;;;;;;;;;21.32;nan;101680.56;5040119;28;19928;-35
2022/11/01 01:25:57;;;;;;;;;;;;;;;21.26;nan;101673.59;5041639;28;19963;-35
2022/11/01 01:28:22;;;;;;;;;;;;;;;21.23;nan;101665.16;5043849;28;20407;-35
2022/11/01 01:30:48;;;;;;;;;;;;;;;21.23;nan;101676.06;5039884;28;19927;-35
2022/11/01 01:33:13;;;;;;;;;;;;;;;21.24;nan;101656.72;5043812;28;19913;-36
2022/11/01 01:35:38;;;;;;;;;;;;;;;21.28;nan;101651.47;5039496;28;20350;-35
2022/11/01 01:38:04;;;;;;;;;;;;;;;21.30;nan;101647.34;5045831;28;19956;-35
2022/11/01 01:40:30;;;;;;;;;;;;;;;21.32;nan;101647.84;5041322;28;19959;-35
2022/11/01 01:42:55;;;;;;;;;;;;;;;21.33;nan;101640.47;5045510;28;19956;-35
2022/11/01 01:45:32;;;;;;;;;;;;;;;21.33;nan;101626.84;5040280;28;19970;-35
2022/11/01 01:48:16;;;;;;;;;;;;;;;21.33;nan;101621.41;5040712;28;19971;-36
2022/11/01 01:50:54;;;;;;;;;;;;;;;21.30;nan;101611.09;5042471;28;19917;-36
2022/11/01 01:53:22;;;;;;;;;;;;;;;21.26;nan;101610.91;5044640;28;19924;-35
2022/11/01 01:56:03;;;;;;;;;;;;;;;21.24;nan;101618.56;5040561;28;19927;-36
2022/11/01 01:58:31;;;;;;;;;;;;;;;21.27;nan;101630.78;5040628;28;19999;-35
2022/11/01 02:00:57;;;;;;;;;;;;;;;21.27;nan;101633.50;5042884;28;19931;-36
2022/11/01 02:03:26;;;;;;;;;;;;;;;21.24;nan;101637.63;5042759;28;20262;-36
2022/11/01 02:06:05;;;;;;;;;;;;;;;21.22;nan;101642.56;5037437;28;19917;-36
2022/11/01 02:08:31;;;;;;;;;;;;;;;21.15;nan;101625.75;5040466;28;19978;-36
2022/11/01 02:11:00;;;;;;;;;;;;;;;21.10;nan;101617.69;5043542;28;19959;-36
2022/11/01 02:13:25;;;;;;;;;;;;;;;21.07;nan;101631.91;5040968;28;20371;-36
2022/11/01 02:16:06;;;;;;;;;;;;;;;20.99;nan;101614.28;5044104;28;19970;-36
2022/11/01 02:18:43;;;;;;;;;;;;;;;20.93;nan;101590.16;5038710;28;21412;-35
2022/11/01 02:21:27;;;;;;;;;;;;;;;20.95;nan;101598.84;5039728;28;19917;-35
2022/11/01 02:23:55;;;;;;;;;;;;;;;20.92;nan;101624.78;5041162;28;20305;-36
2022/11/01 02:26:32;;;;;;;;;;;;;;;20.90;nan;101623.44;5043377;28;19939;-36
2022/11/01 02:28:58;;;;;;;;;;;;;;;20.86;nan;101638.78;5036891;28;20354;-35
2022/11/01 02:31:58;;;;;;;;;;;;;;;20.81;nan;101653.25;5042234;28;19917;-36
2022/11/01 02:34:26;;;;;;;;;;;;;;;20.70;nan;101630.81;4980591;28;20552;-35
2022/11/01 02:36:58;;;;;;;;;;;;;;;20.69;nan;101618.31;5030806;28;20248;-35
2022/11/01 02:39:28;;;;;;;;;;;;;;;20.71;nan;101616.09;5040804;28;20282;-35
2022/11/01 02:42:01;;;;;;;;;;;;;;;20.70;nan;101617.22;5042062;28;20286;-35
2022/11/01 02:44:30;;;;;;;;;;;;;;;20.68;nan;101624.88;5044775;28;19970;-36
2022/11/01 02:47:00;;;;;;;;;;;;;;;20.71;nan;101618.00;5046328;28;19923;-36
2022/11/01 02:49:27;;;;;;;;;;;;;;;20.71;nan;101621.53;5047390;28;19923;-36
2022/11/01 02:51:54;;;;;;;;;;;;;;;20.74;nan;101601.09;5043874;28;20567;-36
2022/11/01 02:54:21;;;;;;;;;;;;;;;20.76;nan;101607.84;5045917;28;20402;-35
2022/11/01 02:56:47;;;;;;;;;;;;;;;20.78;nan;101599.38;5045178;28;19947;-36
2022/11/01 02:59:35;;;;;;;;;;;;;;;20.78;nan;101589.28;5046255;28;19917;-36
2022/11/01 03:02:05;;;;;;;;;;;;;;;20.77;nan;101590.41;5040861;28;19939;-36
2022/11/01 03:04:31;;;;;;;;;;;;;;;20.81;nan;101585.16;5041419;28;19928;-35
2022/11/01 03:06:58;;;;;;;;;;;;;;;20.86;nan;101578.84;5043883;28;19917;-36
2022/11/01 03:09:24;;;;;;;;;;;;;;;20.84;nan;101572.91;5041385;28;19971;-36
2022/11/01 03:12:04;;;;;;;;;;;;;;;20.84;nan;101576.44;5041810;28;19921;-36
2022/11/01 03:14:41;;;;;;;;;;;;;;;20.83;nan;101568.56;5039135;28;19976;-36
2022/11/01 03:17:09;;;;;;;;;;;;;;;20.85;nan;101560.88;5043330;28;20478;-36
2022/11/01 03:19:34;;;;;;;;;;;;;;;20.85;nan;101555.44;5048148;28;19924;-35
2022/11/01 03:22:12;;;;;;;;;;;;;;;20.81;nan;101542.41;5045147;28;19917;-35
2022/11/01 03:24:51;;;;;;;;;;;;;;;20.81;nan;101534.22;5043364;28;19936;-35
2022/11/01 03:27:16;;;;;;;;;;;;;;;20.83;nan;101535.88;5042749;28;20394;-36
2022/11/01 03:29:44;;;;;;;;;;;;;;;20.80;nan;101542.69;5042504;28;19916;-35
2022/11/01 03:32:10;;;;;;;;;;;;;;;20.77;nan;101549.56;5043348;28;20234;-36
2022/11/01 03:34:36;;;;;;;;;;;;;;;20.79;nan;101557.41;5044815;28;20028;-35
2022/11/01 03:37:04;;;;;;;;;;;;;;;20.80;nan;101564.47;5041787;28;20451;-36
2022/11/01 03:39:50;;;;;;;;;;;;;;;20.80;nan;101567.22;5044115;28;19917;-35
2022/11/01 03:42:17;;;;;;;;;;;;;;;20.80;nan;101559.03;5046117;28;19920;-36
2022/11/01 03:44:45;;;;;;;;;;;;;;;20.83;nan;101563.09;5045052;28;19917;-35
2022/11/01 03:47:10;;;;;;;;;;;;;;;20.85;nan;101571.78;5039952;28;19920;-35
2022/11/01 03:49:36;;;;;;;;;;;;;;;20.86;nan;101567.97;5040681;28;20271;-36
2022/11/01 03:52:01;;;;;;;;;;;;;;;20.85;nan;101552.72;5043864;28;19925;-36
2022/11/01 03:54:27;;;;;;;;;;;;;;;20.85;nan;101556.25;5042138;28;19928;-35
2022/11/01 03:56:53;;;;;;;;;;;;;;;20.87;nan;101550.50;5042006;28;20390;-36
2022/11/01 03:59:18;;;;;;;;;;;;;;;20.86;nan;101544.25;5041786;28;19960;-35
2022/11/01 04:01:44;;;;;;;;;;;;;;;20.85;nan;101547.28;5040718;28;20008;-36
2022/11/01 04:04:09;;;;;;;;;;;;;;;20.84;nan;101548.38;5041373;28;19929;-35
2022/11/01 04:06:34;;;;;;;;;;;;;;;20.80;nan;101548.16;5043377;28;19923;-35
2022/11/01 04:09:00;;;;;;;;;;;;;;;20.77;nan;101540.56;5042052;28;19927;-36
2022/11/01 04:11:25;;;;;;;;;;;;;;;20.73;nan;101545.81;5042019;28;19928;-35
2022/11/01 04:13:50;;;;;;;;;;;;;;;20.74;nan;101530.28;5042628;28;19932;-36
2022/11/01 04:21:44;;;;;;;;;;;;;;;20.68;nan;101526.84;5038370;28;19923;-35
2022/11/01 04:24:09;;;;;;;;;;;;;;;20.68;nan;101520.59;5042405;28;19921;-35
2022/11/01 04:26:34;;;;;;;;;;;;;;;20.66;nan;101522.81;5044683;28;19924;-36
2022/11/01 04:29:00;;;;;;;;;;;;;;;20.65;nan;101524.72;5041481;28;20605;-36
2022/11/01 04:31:27;;;;;;;;;;;;;;;20.65;nan;101535.59;5040810;28;20003;-35
2022/11/01 04:33:53;;;;;;;;;;;;;;;20.66;nan;101537.22;5038322;28;19927;-35
2022/11/01 04:36:18;;;;;;;;;;;;;;;20.69;nan;101528.44;5045598;28;19925;-35
2022/11/01 04:38:43;;;;;;;;;;;;;;;20.72;nan;101536.03;5040754;28;19948;-36
2022/11/01 04:41:09;;;;;;;;;;;;;;;20.73;nan;101529.47;5042049;28;19916;-36
2022/11/01 04:43:34;;;;;;;;;;;;;;;20.70;nan;101524.63;5037578;28;19978;-35
2022/11/01 04:45:59;;;;;;;;;;;;;;;20.69;nan;101531.19;5037310;28;19931;-36
2022/11/01 04:48:26;;;;;;;;;;;;;;;20.70;nan;101527.34;5040365;28;19967;-35
2022/11/01 04:50:51;;;;;;;;;;;;;;;20.69;nan;101514.84;5041621;28;19924;-36
2022/11/01 04:53:17;;;;;;;;;;;;;;;20.69;nan;101523.00;5040880;28;19935;-35
2022/11/01 04:55:42;;;;;;;;;;;;;;;20.68;nan;101521.41;5038502;28;20544;-36
2022/11/01 04:58:09;;;;;;;;;;;;;;;20.67;nan;101527.13;5040748;28;19924;-35
2022/11/01 05:00:35;;;;;;;;;;;;;;;20.64;nan;101523.06;5045417;28;19916;-36
2022/11/01 05:03:01;;;;;;;;;;;;;;;20.66;nan;101526.31;5043771;28;19925;-36
2022/11/01 05:05:27;;;;;;;;;;;;;;;20.60;nan;101522.06;5040774;28;20392;-36
2022/11/01 05:07:59;;;;;;;;;;;;;;;20.55;nan;101527.59;5040944;28;19925;-36
2022/11/01 05:10:25;;;;;;;;;;;;;;;20.49;nan;101515.16;5039852;28;19928;-36
2022/11/01 05:12:50;;;;;;;;;;;;;;;20.43;nan;101510.88;5041570;28;19925;-35
2022/11/01 05:15:15;;;;;;;;;;;;;;;20.35;nan;101504.19;5041270;28;20612;-35
2022/11/01 05:17:41;;;;;;;;;;;;;;;20.31;nan;101502.34;5043323;28;20393;-35
2022/11/01 05:20:06;;;;;;;;;;;;;;;20.27;nan;101506.75;5039583;28;19924;-36
2022/11/01 05:22:32;;;;;;;;;;;;;;;20.24;nan;101502.69;5043844;28;20015;-36
2022/11/01 05:24:59;;;;;;;;;;;;;;;20.20;nan;101499.75;5039488;28;21332;-35
2022/11/01 05:27:24;;;;;;;;;;;;;;;20.25;nan;101498.06;5041189;28;19931;-35
2022/11/01 05:29:50;;;;;;;;;;;;;;;20.29;nan;101504.53;5040100;28;20111;-35
2022/11/01 05:32:15;;;;;;;;;;;;;;;20.27;nan;101504.03;5043568;28;19920;-36
2022/11/01 05:34:40;;;;;;;;;;;;;;;20.20;nan;101507.94;5058882;22;19920;-36
2022/11/01 05:37:06;;;;;;;;;;;;;;;20.18;nan;101504.69;5040086;28;20047;-34
2022/11/01 05:39:31;;;;;;;;;;;;;;;20.15;nan;101509.91;5042293;28;19920;-35
2022/11/01 05:41:56;;;;;;;;;;;;;;;20.12;nan;101510.50;5043471;28;19974;-34
2022/11/01 05:44:22;;;;;;;;;;;;;;;20.10;nan;101515.41;5046275;28;20491;-34
2022/11/01 05:46:47;;;;;;;;;;;;;;;20.07;nan;101514.09;5042932;28;19921;-34
2022/11/01 05:49:12;;;;;;;;;;;;;;;20.04;nan;101509.25;5040744;28;20397;-34
2022/11/01 05:51:38;;;;;;;;;;;;;;;20.08;nan;101504.00;5044173;28;20014;-35
2022/11/01 05:54:03;;;;;;;;;;;;;;;20.09;nan;101501.00;5038612;28;19920;-34
2022/11/01 05:56:28;;;;;;;;;;;;;;;20.12;nan;101495.00;5034464;28;20078;-35
2022/11/01 05:58:54;;;;;;;;;;;;;;;20.12;nan;101491.47;5039728;28;19917;-34
2022/11/01 06:01:20;;;;;;;;;;;;;;;20.12;nan;101499.63;5036160;28;20357;-34
2022/11/01 06:03:48;;;;;;;;;;;;;;;20.09;nan;101498.28;5042970;28;19956;-35
2022/11/01 06:06:14;;;;;;;;;;;;;;;20.11;nan;101487.94;5042266;28;19921;-34
2022/11/01 06:08:39;;;;;;;;;;;;;;;20.16;nan;101492.50;5043197;28;20143;-34
2022/11/01 06:11:05;;;;;;;;;;;;;;;20.17;nan;101508.53;5037873;28;19948;-34
2022/11/01 06:13:30;;;;;;;;;;;;;;;20.13;nan;101496.63;5040723;28;19921;-34
2022/11/01 06:15:57;;;;;;;;;;;;;;;20.12;nan;101495.00;5046080;28;20362;-34
2022/11/01 06:18:22;;;;;;;;;;;;;;;20.08;nan;101493.13;5043547;28;20390;-34
2022/11/01 06:20:47;;;;;;;;;;;;;;;20.11;nan;101481.69;5046126;28;19978;-34
2022/11/01 06:23:13;;;;;;;;;;;;;;;20.12;nan;101484.13;5045772;28;19924;-34
2022/11/01 06:25:38;;;;;;;;;;;;;;;20.13;nan;101479.47;5045349;28;19924;-34
2022/11/01 06:28:03;;;;;;;;;;;;;;;20.02;nan;101484.25;5044116;28;19933;-34
2022/11/01 06:30:29;;;;;;;;;;;;;;;20.00;nan;101483.72;5048597;28;20300;-34
2022/11/01 06:32:58;;;;;;;;;;;;;;;20.01;nan;101477.19;5044189;28;19944;-34
2022/11/01 06:35:25;;;;;;;;;;;;;;;20.04;nan;101483.94;5046832;28;20047;-34
2022/11/01 06:37:50;;;;;;;;;;;;;;;20.04;nan;101481.22;5046009;28;20734;-34
2022/11/01 06:40:15;;;;;;;;;;;;;;;20.03;nan;101490.50;5047168;28;19916;-34
2022/11/01 06:42:41;;;;;;;;;;;;;;;20.02;nan;101489.69;5048222;28;20043;-34
2022/11/01 06:45:06;;;;;;;;;;;;;;;20.05;nan;101477.41;5048484;28;19921;-34
2022/11/01 06:47:31;;;;;;;;;;;;;;;20.07;nan;101481.44;5048335;28;20321;-34
2022/11/01 06:49:57;;;;;;;;;;;;;;;20.13;nan;101488.44;5046423;28;20026;-34
2022/11/01 06:52:22;;;;;;;;;;;;;;;20.11;nan;101482.50;5046160;28;19920;-34
2022/11/01 06:54:47;;;;;;;;;;;;;;;20.11;nan;101490.66;5067549;22;20315;-90
2022/11/01 06:57:13;;;;;;;;;;;;;;;20.08;nan;101491.22;5053409;28;19979;-90
2022/11/01 06:59:38;;;;;;;;;;;;;;;20.08;nan;101490.41;5049015;28;20046;-90
2022/11/01 07:02:04;;;;;;;;;;;;;;;20.10;nan;101494.44;5043933;28;19924;-90
2022/11/01 07:04:38;;;;;;;;;;;;;;;20.09;nan;101487.41;5047991;28;19928;-90
2022/11/01 07:07:04;;;;;;;;;;;;;;;20.15;nan;101483.53;5054070;28;19919;-90
2022/11/01 07:09:29;;;;;;;;;;;;;;;20.12;nan;101495.00;5050574;28;19917;-91
2022/11/01 07:11:55;;;;;;;;;;;;;;;20.11;nan;101501.53;5058190;28;19917;-90
2022/11/01 07:14:20;;;;;;;;;;;;;;;20.09;nan;101509.16;5051977;28;20201;-90
2022/11/01 07:16:49;;;;;;;;;;;;;;;20.05;nan;101516.28;5051704;28;19913;-91
2022/11/01 07:19:22;;;;;;;;;;;;;;;20.03;nan;101515.78;5049683;28;20298;-90
2022/11/01 07:21:48;;;;;;;;;;;;;;;19.99;nan;101514.75;5049455;28;19928;-90
2022/11/01 07:24:14;;;;;;;;;;;;;;;19.99;nan;101500.34;5052773;28;19917;-91
2022/11/01 07:26:39;;;;;;;;;;;;;;;20.00;nan;101507.41;5051847;28;19924;-90
2022/11/01 07:29:05;;;;;;;;;;;;;;;19.99;nan;101495.72;5056194;28;19924;-90
2022/11/01 07:31:33;;;;;;;;;;;;;;;20.01;nan;101501.66;5071601;28;19921;-91
2022/11/01 07:33:59;;;;;;;;;;;;;;;20.02;nan;101500.56;5083054;28;19951;-90
2022/11/01 07:36:24;;;;;;;;;;;;;;;20.05;nan;101499.97;5068651;28;19920;-91
2022/11/01 07:38:50;;;;;;;;;;;;;;;20.11;nan;101500.72;5053476;28;19939;-90
2022/11/01 07:41:15;;;;;;;;;;;;;;;20.14;nan;101509.09;5047127;28;19916;-91
2022/11/01 07:43:41;;;;;;;;;;;;;;;20.14;nan;101500.94;5052436;28;19974;-90
2022/11/01 07:46:06;;;;;;;;;;;;;;;20.16;nan;101516.97;5047581;28;20233;-90
2022/11/01 07:48:32;;;;;;;;;;;;;;;20.13;nan;101499.34;5042990;28;19928;-91
2022/11/01 07:50:58;;;;;;;;;;;;;;;20.19;nan;101498.16;5049870;28;19912;-90
2022/11/01 07:53:26;;;;;;;;;;;;;;;20.26;nan;101503.22;5050751;28;19924;-90
2022/11/01 07:55:51;;;;;;;;;;;;;;;20.33;nan;101494.69;5053358;28;19963;-91
2022/11/01 07:58:17;;;;;;;;;;;;;;;20.38;nan;101486.44;5048466;28;20677;-90
2022/11/01 08:00:43;;;;;;;;;;;;;;;20.42;nan;101473.88;5053197;28;19987;-89
2022/11/01 08:03:10;;;;;;;;;;;;;;;20.44;nan;101458.88;5043163;28;19941;-91
2022/11/01 08:05:35;;;;;;;;;;;;;;;20.44;nan;101496.16;5050323;28;19978;-91
2022/11/01 08:08:01;;;;;;;;;;;;;;;20.41;nan;101470.34;5047347;28;20646;-90
2022/11/01 08:10:30;;;;;;;;;;;;;;;20.40;nan;101457.00;5046846;28;19921;-91
2022/11/01 08:13:03;;;;;;;;;;;;;;;20.42;nan;101471.16;5039782;28;20401;-90
2022/11/01 08:15:28;;;;;;;;;;;;;;;20.43;nan;101481.75;5050846;28;19916;-91
2022/11/01 08:17:55;;;;;;;;;;;;;;;20.44;nan;101485.28;5056590;28;19988;-91
2022/11/01 08:20:21;;;;;;;;;;;;;;;20.48;nan;101473.53;5045608;28;19913;-90
2022/11/01 08:22:46;;;;;;;;;;;;;;;20.55;nan;101464.97;5051306;28;19921;-91
2022/11/01 08:25:12;;;;;;;;;;;;;;;20.61;nan;101469.22;5046459;28;20004;-91
2022/11/01 08:27:40;;;;;;;;;;;;;;;20.57;nan;101472.84;5048936;28;19917;-90
2022/11/01 08:30:06;;;;;;;;;;;;;;;20.52;nan;101482.72;5047443;28;20278;-91
2022/11/01 08:32:31;;;;;;;;;;;;;;;20.52;nan;101490.06;5054158;28;19921;-90
2022/11/01 08:34:59;;;;;;;;;;;;;;;20.46;nan;101493.97;5049252;28;19917;-89
2022/11/01 08:37:24;;;;;;;;;;;;;;;20.38;nan;101505.50;5058264;28;19923;-90
2022/11/01 08:39:50;;;;;;;;;;;;;;;20.32;nan;101518.38;5051966;28;19920;-90
2022/11/01 08:42:18;;;;;;;;;;;;;;;20.27;nan;101517.63;5048473;28;19912;-90
2022/11/01 08:44:44;;;;;;;;;;;;;;;20.16;nan;101512.34;5048501;28;19921;-90
2022/11/01 08:47:10;;;;;;;;;;;;;;;20.13;nan;101512.94;5056558;28;20050;-90
2022/11/01 08:49:35;;;;;;;;;;;;;;;20.11;nan;101512.41;5052885;28;20039;-91
2022/11/01 08:52:08;;;;;;;;;;;;;;;20.08;nan;101521.16;5043361;28;20401;-90
2022/11/01 08:54:34;;;;;;;;;;;;;;;20.04;nan;101517.41;5043110;28;20004;-89
2022/11/01 08:57:01;;;;;;;;;;;;;;;20.06;nan;101527.97;5046040;28;20019;-90
2022/11/01 08:59:27;;;;;;;;;;;;;;;20.10;nan;101551.59;5050130;28;19917;-90
2022/11/01 09:01:52;;;;;;;;;;;;;;;20.14;nan;101530.88;5050824;28;20144;-91
2022/11/01 09:04:17;;;;;;;;;;;;;;;20.18;nan;101541.97;5056908;28;19935;-90
2022/11/01 09:06:43;;;;;;;;;;;;;;;20.27;nan;101539.38;5053081;28;19924;-91
2022/11/01 09:09:11;;;;;;;;;;;;;;;20.32;nan;101536.63;5046535;28;19948;-90
2022/11/01 09:11:36;;;;;;;;;;;;;;;20.31;nan;101551.34;5046404;28;19916;-90
2022/11/01 09:14:02;;;;;;;;;;;;;;;20.17;nan;101556.69;5048251;28;19943;-90
2022/11/01 09:16:28;;;;;;;;;;;;;;;20.16;nan;101542.28;5049304;28;19921;-90
2022/11/01 09:18:53;;;;;;;;;;;;;;;20.19;nan;101536.25;5042453;28;19921;-90
2022/11/01 09:21:19;;;;;;;;;;;;;;;20.26;nan;101537.78;5042817;28;20122;-90
2022/11/01 09:23:45;;;;;;;;;;;;;;;20.31;nan;101543.16;5041468;28;19994;-89
2022/11/01 09:26:10;;;;;;;;;;;;;;;20.45;nan;101542.16;5046230;28;20323;-90
2022/11/01 09:28:36;;;;;;;;;;;;;;;20.56;nan;101561.06;5053857;28;19916;-89
2022/11/01 09:31:07;;;;;;;;;;;;;;;20.54;nan;101553.19;5050431;28;20034;-89
2022/11/01 09:33:32;;;;;;;;;;;;;;;20.55;nan;101545.84;5048751;28;19974;-90
2022/11/01 09:36:01;;;;;;;;;;;;;;;20.59;nan;101547.66;5050210;28;20139;-89
2022/11/01 09:38:27;;;;;;;;;;;;;;;20.63;nan;101540.50;5054551;28;19971;-90
2022/11/01 09:41:21;;;;;;;;;;;;;;;20.73;nan;101542.28;5050665;28;19921;-90
2022/11/01 09:43:48;;;;;;;;;;;;;;;20.85;nan;101526.28;5039420;28;20023;-90
2022/11/01 09:46:15;;;;;;;;;;;;;;;20.92;nan;101528.63;5048183;28;19916;-90
2022/11/01 09:48:42;;;;;;;;;;;;;;;20.93;nan;101522.06;5047774;28;20402;-90
2022/11/01 09:51:13;;;;;;;;;;;;;;;20.92;nan;101512.28;5048609;28;20321;-90
2022/11/01 09:53:38;;;;;;;;;;;;;;;20.90;nan;101504.41;5052120;28;19917;-89
2022/11/01 09:56:11;;;;;;;;;;;;;;;20.92;nan;101517.72;5050788;28;19970;-90
2022/11/01 09:58:44;;;;;;;;;;;;;;;20.94;nan;101513.59;5051951;28;19924;-90
2022/11/01 10:01:16;;;;;;;;;;;;;;;21.02;nan;101523.81;5050044;28;19961;-90
2022/11/01 10:04:05;;;;;;;;;;;;;;;21.11;nan;101522.00;5053482;28;20282;-89
2022/11/01 10:06:34;;;;;;;;;;;;;;;21.17;nan;101519.19;5053169;28;20224;-90
2022/11/01 10:09:18;;;;;;;;;;;;;;;21.15;nan;101518.69;5053227;28;20001;-90
2022/11/01 10:11:53;;;;;;;;;;;;;;;21.07;nan;101518.28;5050725;28;19959;-90
2022/11/01 10:14:27;;;;;;;;;;;;;;;21.05;nan;101516.97;5062496;28;19923;-91
2022/11/01 10:16:59;;;;;;;;;;;;;;;21.06;nan;101507.69;5063613;28;19917;-89
2022/11/01 10:19:29;;;;;;;;;;;;;;;21.15;nan;101521.41;5055438;28;20420;-89
2022/11/01 10:22:01;;;;;;;;;;;;;;;21.17;nan;101530.88;5046485;28;20267;-90
2022/11/01 10:24:46;;;;;;;;;;;;;;;21.15;nan;101524.13;5044241;28;19927;-90
2022/11/01 10:27:19;;;;;;;;;;;;;;;21.15;nan;101527.66;5058761;28;19942;-90
2022/11/01 10:29:54;;;;;;;;;;;;;;;21.17;nan;101520.00;5050905;28;19939;-90
2022/11/01 10:32:31;;;;;;;;;;;;;;;21.18;nan;101531.69;5057020;28;19916;-89
2022/11/01 10:35:00;;;;;;;;;;;;;;;21.16;nan;101528.47;5052353;28;20008;-89
2022/11/01 10:37:34;;;;;;;;;;;;;;;21.18;nan;101532.50;5058061;28;20009;-90
2022/11/01 10:40:01;;;;;;;;;;;;;;;21.21;nan;101520.22;5053952;28;19963;-90
2022/11/01 10:42:29;;;;;;;;;;;;;;;21.27;nan;101519.84;5053588;28;19917;-90
2022/11/01 10:44:56;;;;;;;;;;;;;;;21.32;nan;101517.00;5056589;28;19920;-90
2022/11/01 10:47:23;;;;;;;;;;;;;;;21.37;nan;101521.59;5052526;28;19912;-90
2022/11/01 10:49:54;;;;;;;;;;;;;;;21.42;nan;101522.28;5045654;28;19921;-89
2022/11/01 10:52:22;;;;;;;;;;;;;;;21.47;nan;101543.19;5058212;28;19916;-90
2022/11/01 10:54:49;;;;;;;;;;;;;;;21.47;nan;101556.81;5051800;28;20376;-90
2022/11/01 10:57:33;;;;;;;;;;;;;;;21.50;nan;101545.28;5056514;28;20402;-90
2022/11/01 11:00:00;;;;;;;;;;;;;;;21.53;nan;101552.06;5041751;28;19990;-89
2022/11/01 11:02:30;;;;;;;;;;;;;;;21.57;nan;101543.00;5045465;28;19917;-90
2022/11/01 11:04:56;;;;;;;;;;;;;;;21.65;nan;101544.19;5048172;28;20006;-90
2022/11/01 11:07:23;;;;;;;;;;;;;;;21.71;nan;101542.97;5051935;28;19947;-90
2022/11/01 11:09:49;;;;;;;;;;;;;;;21.78;nan;101540.66;5048091;28;19917;-89
2022/11/01 11:12:17;;;;;;;;;;;;;;;21.83;nan;101537.03;5051019;28;20309;-89
2022/11/01 11:14:44;;;;;;;;;;;;;;;21.90;nan;101542.84;5047197;28;19917;-90
2022/11/01 11:17:16;;;;;;;;;;;;;;;21.92;nan;101543.38;5049540;28;20007;-90
2022/11/01 11:19:44;;;;;;;;;;;;;;;21.90;nan;101538.25;5050777;28;20359;-89
2022/11/01 11:22:11;;;;;;;;;;;;;;;21.96;nan;101536.19;5042685;28;19952;-90
2022/11/01 11:24:39;;;;;;;;;;;;;;;21.98;nan;101540.25;5052116;28;20445;-90
2022/11/01 11:27:26;;;;;;;;;;;;;;;21.99;nan;101530.94;5057238;28;20384;-89
2022/11/01 11:29:57;;;;;;;;;;;;;;;21.99;nan;101533.66;5050650;28;19921;-89
2022/11/01 11:32:25;;;;;;;;;;;;;;;22.02;nan;101535.78;5043167;28;20171;-89
2022/11/01 11:35:02;;;;;;;;;;;;;;;22.05;nan;101522.66;5045242;28;19923;-90
2022/11/01 11:37:30;;;;;;;;;;;;;;;22.09;nan;101521.75;5044462;28;19939;-90
2022/11/01 11:39:59;;;;;;;;;;;;;;;22.18;nan;101519.09;5043105;28;20187;-89
2022/11/01 11:42:25;;;;;;;;;;;;;;;22.26;nan;101521.94;5045344;28;19921;-89
2022/11/01 11:44:54;;;;;;;;;;;;;;;22.30;nan;101519.38;5046106;28;19948;-90
2022/11/01 11:47:24;;;;;;;;;;;;;;;22.33;nan;101524.22;5046338;28;20035;-89
2022/11/01 11:49:52;;;;;;;;;;;;;;;22.35;nan;101521.97;5052041;28;19928;-89
2022/11/01 11:52:23;;;;;;;;;;;;;;;22.31;nan;101516.34;5047071;28;19936;-90
2022/11/01 11:54:48;;;;;;;;;;;;;;;22.35;nan;101521.97;5051542;28;19920;-90
2022/11/01 11:57:17;;;;;;;;;;;;;;;22.37;nan;101530.66;5049409;28;19916;-89
2022/11/01 11:59:43;;;;;;;;;;;;;;;22.37;nan;101535.31;5044500;28;20004;-89
2022/11/01 12:02:26;;;;;;;;;;;;;;;22.36;nan;101536.44;5048452;28;19916;-89
2022/11/01 12:04:57;;;;;;;;;;;;;;;22.30;nan;101538.50;5041700;28;20007;-89
2022/11/01 12:07:26;;;;;;;;;;;;;;;22.24;nan;101536.97;5040246;28;19920;-90
2022/11/01 12:09:52;;;;;;;;;;;;;;;22.23;nan;101540.81;5049145;28;19928;-89
2022/11/01 12:12:28;;;;;;;;;;;;;;;22.22;nan;101528.28;5047044;28;20088;-89
2022/11/01 12:14:55;;;;;;;;;;;;;;;22.22;nan;101542.75;5041077;28;20405;-89
2022/11/01 12:17:23;;;;;;;;;;;;;;;22.21;nan;101551.25;5048138;28;19920;-89
2022/11/01 12:19:51;;;;;;;;;;;;;;;22.16;nan;101551.34;5052894;28;19920;-89
2022/11/01 12:22:17;;;;;;;;;;;;;;;22.13;nan;101546.53;5045596;28;20160;-90
2022/11/01 12:24:48;;;;;;;;;;;;;;;22.12;nan;101550.34;5044016;28;20282;-89
2022/11/01 12:27:19;;;;;;;;;;;;;;;22.12;nan;101547.63;5046492;28;19929;-89
2022/11/01 12:29:49;;;;;;;;;;;;;;;22.11;nan;101555.00;5056319;28;20009;-88
2022/11/01 12:32:31;;;;;;;;;;;;;;;22.14;nan;101545.41;5045261;28;19925;-89
2022/11/01 12:35:01;;;;;;;;;;;;;;;22.20;nan;101541.44;5041308;28;19923;-89
2022/11/01 12:37:33;;;;;;;;;;;;;;;22.28;nan;101532.53;5044447;28;19917;-89
2022/11/01 12:40:05;;;;;;;;;;;;;;;22.32;nan;101539.00;5051198;28;19913;-88
2022/11/01 12:42:34;;;;;;;;;;;;;;;22.35;nan;101535.63;5047239;28;19927;-89
2022/11/01 12:45:19;;;;;;;;;;;;;;;22.41;nan;101533.59;5037995;28;19982;-89
2022/11/01 12:47:51;;;;;;;;;;;;;;;22.45;nan;101526.41;5050093;28;19921;-89
2022/11/01 12:50:22;;;;;;;;;;;;;;;22.50;nan;101521.63;5051714;28;19944;-89
2022/11/01 12:52:50;;;;;;;;;;;;;;;22.52;nan;101529.50;5048057;28;20005;-89
2022/11/01 12:55:31;;;;;;;;;;;;;;;22.55;nan;101535.16;5051534;28;19970;-89
2022/11/01 12:57:56;;;;;;;;;;;;;;;22.57;nan;101538.38;5048650;28;19924;-89
2022/11/01 13:00:22;;;;;;;;;;;;;;;22.58;nan;101545.47;5046805;28;19916;-89
2022/11/01 13:03:00;;;;;;;;;;;;;;;22.59;nan;101538.88;5046042;28;20004;-89
2022/11/01 13:05:44;;;;;;;;;;;;;;;22.61;nan;101544.84;5046672;28;19920;-90
2022/11/01 13:08:20;;;;;;;;;;;;;;;22.61;nan;101550.28;5045592;28;19943;-89